Time;durP1;ratioP1;P1;durP2;ratioP2;P2;SDS_P1;SDS_P2;PMS_P1;PMS_P2;Temp;Humidity;BMP_temperature;BMP_pressure;BME280_temperature;BME280_humidity;BME280_pressure;Samples;Min_cycle;Max_cycle;Signal;HPM_P1;HPM_P2
2020/04/25 00:03:40;;;;;;;6.4;4;;;;;;;11.76;59.21777;932.4141;;;;
2020/04/25 00:06:01;;;;;;;6.5;4.1;;;;;;;11.69;58.68164;932.4025;;;;
2020/04/25 00:08:26;;;;;;;11.8;5.4;;;;;;;11.64;61.77832;932.4338;;;;
2020/04/25 00:10:52;;;;;;;10.8;4.8;;;;;;;11.52;61.40625;932.4149;;;;
2020/04/25 00:13:17;;;;;;;9.4;4.3;;;;;;;11.51;61.06152;932.3711;;;;
2020/04/25 00:15:42;;;;;;;6.3;4.3;;;;;;;11.5;60.80859;932.4364;;;;
2020/04/25 00:18:08;;;;;;;8.4;4.5;;;;;;;11.47;61.31934;932.4366;;;;
2020/04/25 00:20:33;;;;;;;7;4.4;;;;;;;11.27;62.79004;932.4417;;;;
2020/04/25 00:22:58;;;;;;;9.3;4.6;;;;;;;11.32;61.89258;932.4048;;;;
2020/04/25 00:25:24;;;;;;;9.5;4.5;;;;;;;11.25;63.10547;932.3613;;;;
2020/04/25 00:27:49;;;;;;;9.6;4.6;;;;;;;11.27;64.75684;932.3125;;;;
2020/04/25 00:30:14;;;;;;;7.4;4.9;;;;;;;11.29;63.25;932.3117;;;;
2020/04/25 00:32:39;;;;;;;8.6;4.4;;;;;;;11.23;63.125;932.3613;;;;
2020/04/25 00:35:04;;;;;;;10.5;4.3;;;;;;;11.25;62.03125;932.3406;;;;
2020/04/25 00:37:30;;;;;;;6.1;3.8;;;;;;;11.4;60.21094;932.3081;;;;
2020/04/25 00:39:55;;;;;;;6.4;4.1;;;;;;;11.36;60.65039;932.2397;;;;
2020/04/25 00:42:20;;;;;;;5.1;3.6;;;;;;;11.46;59.36133;932.2532;;;;
2020/04/25 00:44:45;;;;;;;5.7;4;;;;;;;11.46;59.39453;932.2022;;;;
2020/04/25 00:47:10;;;;;;;8.6;4.4;;;;;;;11.51;62.78809;932.1694;;;;
2020/04/25 00:49:35;;;;;;;9.8;4.5;;;;;;;11.54;60.62012;932.1692;;;;
2020/04/25 00:52:02;;;;;;;9.3;4.2;;;;;;;11.55;58.98438;932.1978;;;;
2020/04/25 00:54:27;;;;;;;7.9;4;;;;;;;11.53;58.74121;932.1501;;;;
2020/04/25 00:56:52;;;;;;;6.5;4;;;;;;;11.51;58.68066;932.1088;;;;
2020/04/25 00:59:17;;;;;;;7.1;4.2;;;;;;;11.59;59.15039;932.1323;;;;
2020/04/25 01:01:42;;;;;;;6.1;3.9;;;;;;;11.64;59.03027;932.1571;;;;
2020/04/25 01:04:07;;;;;;;7.2;4;;;;;;;11.63;58.47949;932.13;;;;
2020/04/25 01:06:32;;;;;;;6.3;3.9;;;;;;;11.67;58.53223;932.1656;;;;
2020/04/25 01:09:08;;;;;;;5.4;3.9;;;;;;;11.71;60.49414;932.1711;;;;
2020/04/25 01:11:33;;;;;;;8;4.1;;;;;;;11.8;59.16797;932.2523;;;;
2020/04/25 01:13:58;;;;;;;7.7;4.1;;;;;;;11.78;61.37402;932.1663;;;;
2020/04/25 01:16:24;;;;;;;8.1;4.3;;;;;;;11.87;61.23828;932.257;;;;
2020/04/25 01:18:49;;;;;;;8.4;4.2;;;;;;;11.8;61.69727;932.2213;;;;
2020/04/25 01:21:14;;;;;;;7.7;4;;;;;;;11.73;61.94043;932.3632;;;;
2020/04/25 01:23:39;;;;;;;5.8;4;;;;;;;11.72;61.57129;932.3122;;;;
2020/04/25 01:26:04;;;;;;;7.1;3.7;;;;;;;11.79;60.18359;932.2148;;;;
2020/04/25 01:28:29;;;;;;;6.5;3.6;;;;;;;11.65;59.14746;932.3652;;;;
2020/04/25 01:30:54;;;;;;;5.1;3.5;;;;;;;11.72;60.48535;932.2277;;;;
2020/04/25 01:33:19;;;;;;;7.7;3.6;;;;;;;11.8;58.46973;932.313;;;;
2020/04/25 01:35:44;;;;;;;4.3;3.2;;;;;;;11.85;58.77441;932.2061;;;;
2020/04/25 01:38:09;;;;;;;7;3.5;;;;;;;11.89;58.70996;932.178;;;;
2020/04/25 01:40:35;;;;;;;5.3;3.4;;;;;;;12.02;58.34863;932.1942;;;;
2020/04/25 01:43:00;;;;;;;6.9;3.6;;;;;;;12.06;58.40039;932.1573;;;;
2020/04/25 01:45:25;;;;;;;5.6;3.9;;;;;;;12.17;57.08594;932.1414;;;;
2020/04/25 01:47:50;;;;;;;8;3.5;;;;;;;12.16;58.28809;932.0153;;;;
2020/04/25 01:50:16;;;;;;;9.1;3.6;;;;;;;12.24;57.32422;932.0422;;;;
2020/04/25 01:52:40;;;;;;;8;3.5;;;;;;;12.26;57.19043;932.0525;;;;
2020/04/25 01:55:05;;;;;;;5.1;3.2;;;;;;;12.24;56.95801;932.0694;;;;
2020/04/25 01:57:30;;;;;;;4.2;3.3;;;;;;;12.21;56.81641;932.007;;;;
2020/04/25 01:59:56;;;;;;;5.3;3.4;;;;;;;12.22;56.91992;931.9785;;;;
2020/04/25 02:02:21;;;;;;;6.7;3.7;;;;;;;12.24;57.51953;931.9967;;;;
2020/04/25 02:04:46;;;;;;;5.2;3.5;;;;;;;12.18;57.62695;932.0184;;;;
2020/04/25 02:07:14;;;;;;;7.5;3.5;;;;;;;12.19;57.70801;932.019;;;;
2020/04/25 02:09:39;;;;;;;5.1;3.6;;;;;;;12.23;56.7041;931.9959;;;;
2020/04/25 02:12:05;;;;;;;7.1;3.5;;;;;;;12.02;58.31445;931.9805;;;;
2020/04/25 02:14:30;;;;;;;5.8;3.7;;;;;;;12;58.77051;931.9698;;;;
2020/04/25 02:16:55;;;;;;;8.7;3.7;;;;;;;12.05;58.42188;932.0176;;;;
2020/04/25 02:19:20;;;;;;;6;4;;;;;;;11.99;59.98438;932.005;;;;
2020/04/25 02:21:45;;;;;;;8.9;4;;;;;;;11.91;61.03711;932.0558;;;;
2020/04/25 02:24:10;;;;;;;6.7;4;;;;;;;11.95;60.05859;932.0204;;;;
2020/04/25 02:26:35;;;;;;;6.7;3.7;;;;;;;11.9;59.66309;931.9002;;;;
2020/04/25 02:29:01;;;;;;;6.7;3.8;;;;;;;11.81;58.97363;932.0648;;;;
2020/04/25 02:31:26;;;;;;;7;3.7;;;;;;;11.75;60.40918;932.0624;;;;
2020/04/25 02:33:52;;;;;;;6.7;3.8;;;;;;;11.76;61.1416;932.0257;;;;
2020/04/25 02:36:17;;;;;;;4.9;4;;;;;;;11.69;60.41113;931.9423;;;;
2020/04/25 02:38:42;;;;;;;5.7;4.1;;;;;;;11.68;60.7998;931.9017;;;;
2020/04/25 02:41:08;;;;;;;6.1;4.2;;;;;;;11.7;60.36816;931.9678;;;;
2020/04/25 02:43:33;;;;;;;6;3.9;;;;;;;11.69;60.68652;931.8602;;;;
2020/04/25 02:45:58;;;;;;;8.5;4.1;;;;;;;11.54;60.6084;931.9331;;;;
2020/04/25 02:48:24;;;;;;;6.3;4.1;;;;;;;11.59;60.5459;931.8524;;;;
2020/04/25 02:50:49;;;;;;;7.3;4;;;;;;;11.51;61.1416;931.8122;;;;
2020/04/25 02:53:14;;;;;;;4.7;3.8;;;;;;;11.24;62.14355;931.8441;;;;
2020/04/25 02:55:40;;;;;;;6.1;4;;;;;;;10.93;63.21973;931.6875;;;;
2020/04/25 02:58:05;;;;;;;6.6;3.7;;;;;;;10.74;63.40918;931.7594;;;;
2020/04/25 03:01:07;;;;;;;10.4;3.9;;;;;;;11.01;63.10645;931.6825;;;;
2020/04/25 03:02:55;;;;;;;8;4.2;;;;;;;11.05;63.55664;931.6461;;;;
2020/04/25 03:05:20;;;;;;;8;4.6;;;;;;;11.03;64.89355;931.6636;;;;
2020/04/25 03:07:45;;;;;;;9.9;4.5;;;;;;;11.07;65.29883;931.622;;;;
2020/04/25 03:10:10;;;;;;;11.2;4.8;;;;;;;11.02;65.42773;931.6852;;;;
2020/04/25 03:12:35;;;;;;;7.6;4.9;;;;;;;11.11;64.82422;931.6355;;;;
2020/04/25 03:15:01;;;;;;;6.9;4.4;;;;;;;11.17;64.83203;931.5373;;;;
2020/04/25 03:17:26;;;;;;;7.6;4.2;;;;;;;11.27;63.58984;931.6089;;;;
2020/04/25 03:19:51;;;;;;;7.3;3.9;;;;;;;11.26;63.00391;931.5555;;;;
2020/04/25 03:22:16;;;;;;;6.8;4.2;;;;;;;11.24;63.5625;931.5867;;;;
2020/04/25 03:24:41;;;;;;;8.1;4;;;;;;;11.21;64.02832;931.5238;;;;
2020/04/25 03:27:06;;;;;;;8;5.1;;;;;;;11.27;65.91211;931.5419;;;;
2020/04/25 03:29:31;;;;;;;9.4;4.9;;;;;;;11.23;66.1582;931.57;;;;
2020/04/25 03:31:57;;;;;;;6.4;4.4;;;;;;;11.31;64.54492;931.4971;;;;
2020/04/25 03:34:22;;;;;;;7;4.1;;;;;;;11.2;63.71582;931.5028;;;;
2020/04/25 03:36:47;;;;;;;7.5;3.8;;;;;;;11.18;63.82813;931.55;;;;
2020/04/25 03:39:12;;;;;;;7.2;3.9;;;;;;;11.23;64.94629;931.5302;;;;
2020/04/25 03:41:38;;;;;;;7.7;3.8;;;;;;;11.28;63.92188;931.5164;;;;
2020/04/25 03:44:03;;;;;;;5.8;3.6;;;;;;;11.35;63.40625;931.5057;;;;
2020/04/25 03:46:28;;;;;;;8.2;3.9;;;;;;;11.27;63.08691;931.4797;;;;
2020/04/25 03:48:53;;;;;;;5.4;3.5;;;;;;;11.28;62.77832;931.5722;;;;
2020/04/25 03:51:19;;;;;;;9.5;4.2;;;;;;;11.15;65.79004;931.5613;;;;
2020/04/25 03:53:44;;;;;;;6.2;4;;;;;;;10.87;67.00391;931.5076;;;;
2020/04/25 03:56:10;;;;;;;5.6;3.9;;;;;;;10.87;66.27246;931.5698;;;;
2020/04/25 03:58:36;;;;;;;8.5;4.2;;;;;;;10.81;67.38379;931.5577;;;;
2020/04/25 04:02:30;;;;;;;7.1;4.4;;;;;;;10.81;66.91602;931.5787;;;;
2020/04/25 04:05:07;;;;;;;6.5;4.1;;;;;;;10.93;65.9873;931.5417;;;;
2020/04/25 04:07:25;;;;;;;7.6;4.3;;;;;;;10.86;66.37598;931.5117;;;;
2020/04/25 04:09:55;;;;;;;7.3;4.3;;;;;;;11.04;64.74414;931.525;;;;
2020/04/25 04:12:25;;;;;;;8.8;4.2;;;;;;;11.06;64.67871;931.5345;;;;
2020/04/25 04:14:46;;;;;;;10.8;4.6;;;;;;;11.01;66.30664;931.5522;;;;
2020/04/25 04:17:12;;;;;;;6.2;4.3;;;;;;;11.07;64.98828;931.5958;;;;
2020/04/25 04:21:59;;;;;;;7.5;4.4;;;;;;;11.22;63.63965;931.5836;;;;
2020/04/25 04:24:27;;;;;;;9.8;4.6;;;;;;;11.21;65.44531;931.5889;;;;
2020/04/25 04:26:49;;;;;;;7.5;4.5;;;;;;;11.38;65.12793;931.5342;;;;
2020/04/25 04:29:15;;;;;;;12.2;4.9;;;;;;;11.36;63.3623;931.587;;;;
2020/04/25 04:34:17;;;;;;;11.7;4.8;;;;;;;11.33;64.2041;931.462;;;;
2020/04/25 04:36:46;;;;;;;10.9;5;;;;;;;11.43;63.20215;931.5208;;;;
2020/04/25 04:39:44;;;;;;;7.4;4.8;;;;;;;11.47;62.29199;931.5222;;;;
2020/04/25 04:43:59;;;;;;;8.6;4.8;;;;;;;11.52;63.10059;931.5378;;;;
2020/04/25 04:46:11;;;;;;;12.6;5.4;;;;;;;11.43;62.84668;931.5072;;;;
2020/04/25 04:48:36;;;;;;;9.5;4.3;;;;;;;11.45;64.97656;931.5016;;;;
2020/04/25 04:51:01;;;;;;;8.9;4.8;;;;;;;11.59;62.27637;931.4792;;;;
2020/04/25 04:53:27;;;;;;;7.7;4.6;;;;;;;11.42;62.2627;931.4937;;;;
2020/04/25 04:55:52;;;;;;;8.1;4.9;;;;;;;11.51;62.61719;931.5132;;;;
2020/04/25 04:58:18;;;;;;;7.1;4.5;;;;;;;11.63;62.85254;931.3979;;;;
2020/04/25 05:00:44;;;;;;;6.8;4.4;;;;;;;11.59;63.39648;931.4034;;;;
2020/04/25 05:03:09;;;;;;;7.6;4.5;;;;;;;11.8;62.06543;931.473;;;;
2020/04/25 05:05:35;;;;;;;8.3;4.6;;;;;;;11.7;62.65625;931.4526;;;;
2020/04/25 05:08:00;;;;;;;6.6;4.3;;;;;;;11.72;62.69336;931.4581;;;;
2020/04/25 05:10:26;;;;;;;9;4.6;;;;;;;11.83;62.48145;931.4388;;;;
2020/04/25 05:12:51;;;;;;;7.2;4.7;;;;;;;11.89;62.47754;931.3929;;;;
2020/04/25 05:15:17;;;;;;;7.2;4.5;;;;;;;11.9;62.53809;931.4264;;;;
2020/04/25 05:17:42;;;;;;;8.3;4.5;;;;;;;11.99;63.07617;931.4497;;;;
2020/04/25 05:20:07;;;;;;;5.6;4.1;;;;;;;12.06;62.15918;931.4431;;;;
2020/04/25 05:22:32;;;;;;;9.5;4.2;;;;;;;12.12;62.3623;931.3995;;;;
2020/04/25 05:24:58;;;;;;;6.8;4.3;;;;;;;12.22;62.87988;931.2874;;;;
2020/04/25 05:27:23;;;;;;;9.4;5;;;;;;;12.35;64.57324;931.3796;;;;
2020/04/25 05:29:48;;;;;;;7.3;4.8;;;;;;;12.42;64.56152;931.4208;;;;
2020/04/25 05:32:13;;;;;;;8.8;4.7;;;;;;;12.5;64.64258;931.4185;;;;
2020/04/25 05:34:38;;;;;;;8.8;4.6;;;;;;;12.57;64.61816;931.4609;;;;
2020/04/25 05:37:04;;;;;;;8.4;4.9;;;;;;;12.48;62.5293;931.4713;;;;
2020/04/25 05:39:29;;;;;;;7.3;5.2;;;;;;;12.42;64.93945;931.4264;;;;
2020/04/25 05:41:54;;;;;;;11.1;6.5;;;;;;;12.43;62.68359;931.5549;;;;
2020/04/25 05:44:22;;;;;;;11.4;6.5;;;;;;;12.39;64.14453;931.5916;;;;
2020/04/25 05:46:52;;;;;;;9.9;5.4;;;;;;;12.38;64.50879;931.6437;;;;
2020/04/25 05:49:13;;;;;;;10.6;5.8;;;;;;;12.32;65.24609;931.7167;;;;
2020/04/25 05:51:38;;;;;;;8.2;5.1;;;;;;;12.33;64.26172;931.7191;;;;
2020/04/25 05:54:03;;;;;;;9.5;5.3;;;;;;;12.3;65.40332;931.8119;;;;
2020/04/25 05:56:28;;;;;;;8.7;5.1;;;;;;;12.27;66.01758;931.9199;;;;
2020/04/25 05:58:53;;;;;;;10.3;5.2;;;;;;;12.15;66.80176;931.9955;;;;
2020/04/25 06:01:18;;;;;;;13.5;5;;;;;;;12.17;66.66699;932.0583;;;;
2020/04/25 06:03:44;;;;;;;12.6;5;;;;;;;12.07;66.22656;932.048;;;;
2020/04/25 06:06:10;;;;;;;13.4;5.3;;;;;;;12.04;67.93066;932.2012;;;;
2020/04/25 06:08:35;;;;;;;10.9;5.2;;;;;;;12.03;68.66211;932.2205;;;;
2020/04/25 06:11:01;;;;;;;9.5;5.2;;;;;;;12.03;67.45996;932.1575;;;;
2020/04/25 06:13:26;;;;;;;10.6;5.2;;;;;;;11.78;70.22559;932.1923;;;;
2020/04/25 06:15:51;;;;;;;8.5;5;;;;;;;11.79;68.22461;932.2539;;;;
2020/04/25 06:18:16;;;;;;;7.6;5.3;;;;;;;11.76;69.24902;932.182;;;;
2020/04/25 06:20:41;;;;;;;7.2;4.6;;;;;;;11.73;69.2793;932.1057;;;;
2020/04/25 06:23:06;;;;;;;7.3;4.7;;;;;;;11.74;69.13086;932.1805;;;;
2020/04/25 06:25:31;;;;;;;9.9;5.1;;;;;;;11.84;69.52441;932.195;;;;
2020/04/25 06:27:56;;;;;;;7.9;4.8;;;;;;;11.7;70.65918;932.2381;;;;
2020/04/25 06:30:22;;;;;;;9;4.8;;;;;;;11.73;70.93945;932.2659;;;;
2020/04/25 06:32:47;;;;;;;6.8;4.6;;;;;;;11.98;70.8418;932.3314;;;;
2020/04/25 06:35:12;;;;;;;7.1;4.9;;;;;;;12.2;70.68262;932.3488;;;;
2020/04/25 06:37:37;;;;;;;7.4;4.6;;;;;;;12.27;69.05664;932.2991;;;;
2020/04/25 06:40:02;;;;;;;7.8;4.9;;;;;;;12.32;67.96289;932.2986;;;;
2020/04/25 06:42:28;;;;;;;8.6;4.9;;;;;;;12.51;69.55273;932.3272;;;;
2020/04/25 06:44:53;;;;;;;9.7;5.4;;;;;;;12.66;68.49707;932.3582;;;;
2020/04/25 06:47:18;;;;;;;7.7;5;;;;;;;12.78;69.46875;932.2366;;;;
2020/04/25 06:49:43;;;;;;;7.5;5.4;;;;;;;12.74;68.78516;932.2656;;;;
2020/04/25 06:52:08;;;;;;;7;5.1;;;;;;;12.75;71.51855;932.2169;;;;
2020/04/25 06:54:33;;;;;;;8.9;5.4;;;;;;;12.92;71.68457;932.2723;;;;
2020/04/25 06:56:59;;;;;;;8;5.3;;;;;;;13.07;72.72168;932.2943;;;;
2020/04/25 06:59:24;;;;;;;7.9;6.2;;;;;;;12.96;71.00098;932.2783;;;;
2020/04/25 07:01:49;;;;;;;19.9;9.2;;;;;;;12.92;71.22656;932.2539;;;;
2020/04/25 07:04:14;;;;;;;16.2;7;;;;;;;12.92;70.24902;932.2844;;;;
2020/04/25 07:06:39;;;;;;;142.4;48.7;;;;;;;13.04;71.34766;932.2698;;;;
2020/04/25 07:09:04;;;;;;;46.1;16.2;;;;;;;13;69.62109;932.2667;;;;
2020/04/25 07:11:29;;;;;;;57.8;19.5;;;;;;;13.11;70.10742;932.2892;;;;
2020/04/25 07:13:55;;;;;;;7.5;4.8;;;;;;;13.02;69.3125;932.3636;;;;
2020/04/25 07:16:20;;;;;;;41.8;15.8;;;;;;;13.08;70.52832;932.2358;;;;
2020/04/25 07:18:46;;;;;;;7.2;4.9;;;;;;;13.11;69.93555;932.3163;;;;
2020/04/25 07:21:11;;;;;;;7.8;5.3;;;;;;;13.29;70.2168;932.3406;;;;
2020/04/25 07:23:37;;;;;;;7.8;4.8;;;;;;;13.37;69.40234;932.271;;;;
2020/04/25 07:26:06;;;;;;;11.1;7.1;;;;;;;13.73;69.90723;932.3075;;;;
2020/04/25 07:28:31;;;;;;;10.5;7.5;;;;;;;13.91;70.39844;932.2766;;;;
2020/04/25 07:30:56;;;;;;;11.4;8.6;;;;;;;14.02;67.1123;932.2394;;;;
2020/04/25 07:33:21;;;;;;;9.5;6;;;;;;;13.86;64.60254;932.2492;;;;
2020/04/25 07:35:46;;;;;;;7.3;5.1;;;;;;;13.72;65.43359;932.3108;;;;
2020/04/25 07:38:11;;;;;;;8.6;5.1;;;;;;;13.67;65.10449;932.3464;;;;
2020/04/25 07:40:36;;;;;;;7.1;5.4;;;;;;;13.84;65.38184;932.4064;;;;
2020/04/25 07:43:01;;;;;;;7.6;5.4;;;;;;;13.94;68.24023;932.3514;;;;
2020/04/25 07:45:26;;;;;;;7.9;5;;;;;;;14.19;64.97266;932.4101;;;;
2020/04/25 07:47:52;;;;;;;9.7;5.3;;;;;;;14.25;66.28516;932.4214;;;;
2020/04/25 07:50:17;;;;;;;7.8;4.6;;;;;;;14.49;63.95801;932.3585;;;;
2020/04/25 07:52:44;;;;;;;8.1;4.6;;;;;;;14.6;64.30957;932.36;;;;
2020/04/25 07:55:09;;;;;;;7.6;5.1;;;;;;;14.58;65.28516;932.4636;;;;
2020/04/25 07:57:34;;;;;;;6.6;4.8;;;;;;;14.6;64.67773;932.4986;;;;
2020/04/25 08:00:00;;;;;;;6.9;5.4;;;;;;;14.44;66.01367;932.4473;;;;
2020/04/25 08:02:25;;;;;;;6.7;4.8;;;;;;;14.53;64.1377;932.4869;;;;
2020/04/25 08:04:51;;;;;;;7.7;4.9;;;;;;;14.52;65.0918;932.6121;;;;
2020/04/25 08:07:17;;;;;;;7.8;5.1;;;;;;;14.61;64.30957;932.6091;;;;
2020/04/25 08:09:42;;;;;;;7.6;5.3;;;;;;;14.64;64.31543;932.6016;;;;
2020/04/25 08:12:07;;;;;;;7.5;4.9;;;;;;;14.73;64.82422;932.6531;;;;
2020/04/25 08:14:33;;;;;;;7.2;5.2;;;;;;;14.91;65.84277;932.7202;;;;
2020/04/25 08:16:58;;;;;;;8;5.4;;;;;;;15.07;64.08887;932.6249;;;;
2020/04/25 08:19:23;;;;;;;7.9;5.5;;;;;;;15.23;63.16699;932.637;;;;
2020/04/25 08:21:48;;;;;;;10.4;6;;;;;;;15.3;64.33105;932.5995;;;;
2020/04/25 08:24:13;;;;;;;10;6.7;;;;;;;15.31;63.38672;932.7253;;;;
2020/04/25 08:26:39;;;;;;;6.9;5.8;;;;;;;15.34;65.26074;932.7;;;;
2020/04/25 08:29:04;;;;;;;8.4;6.2;;;;;;;15.38;64.89648;932.6688;;;;
2020/04/25 08:31:30;;;;;;;8.9;6.4;;;;;;;15.37;63.71875;932.6746;;;;
2020/04/25 08:33:55;;;;;;;8.6;6.5;;;;;;;15.42;64.17676;932.6747;;;;
2020/04/25 08:36:20;;;;;;;9.3;6.4;;;;;;;15.44;64.5957;932.6912;;;;
2020/04/25 08:38:47;;;;;;;10.1;6.2;;;;;;;15.42;64.41895;932.6467;;;;
2020/04/25 08:41:11;;;;;;;8.8;6.5;;;;;;;15.37;64.06543;932.6817;;;;
2020/04/25 08:43:37;;;;;;;11.4;6.2;;;;;;;15.55;63.45508;932.7744;;;;
2020/04/25 08:46:02;;;;;;;8.3;6.1;;;;;;;15.71;60.87891;932.7471;;;;
2020/04/25 08:48:27;;;;;;;6.2;5.5;;;;;;;15.72;60.11914;932.6794;;;;
2020/04/25 08:50:53;;;;;;;7.1;5.8;;;;;;;15.79;59.98828;932.6756;;;;
2020/04/25 08:53:18;;;;;;;7.8;5.3;;;;;;;15.81;59.79492;932.6342;;;;
2020/04/25 08:55:43;;;;;;;6.7;5.5;;;;;;;15.85;59.74316;932.6337;;;;
2020/04/25 08:58:09;;;;;;;8.9;5.5;;;;;;;15.97;59.90918;932.5695;;;;
2020/04/25 09:00:34;;;;;;;6.5;5.5;;;;;;;16.2;60.42773;932.6027;;;;
2020/04/25 09:02:59;;;;;;;8.1;5.7;;;;;;;16.46;58.57715;932.6483;;;;
2020/04/25 09:05:25;;;;;;;6.5;5.8;;;;;;;16.56;59.875;932.6516;;;;
2020/04/25 09:07:50;;;;;;;9.3;5.5;;;;;;;16.63;59.37402;932.6143;;;;
2020/04/25 09:10:16;;;;;;;7.5;5.7;;;;;;;16.94;58.69727;932.565;;;;
2020/04/25 09:12:41;;;;;;;7.4;5.8;;;;;;;17.22;57.58789;932.5352;;;;
2020/04/25 09:15:06;;;;;;;6.6;5.5;;;;;;;17.21;56.47266;932.5352;;;;
2020/04/25 09:17:31;;;;;;;10.5;5.6;;;;;;;17.25;56.17578;932.4501;;;;
2020/04/25 09:19:56;;;;;;;8;6.1;;;;;;;17.27;56.23926;932.447;;;;
2020/04/25 09:22:22;;;;;;;39.7;25.7;;;;;;;17.42;59.67773;932.3292;;;;
2020/04/25 09:24:47;;;;;;;9;6.7;;;;;;;17.8;56.06055;932.4066;;;;
2020/04/25 09:27:12;;;;;;;7.4;5.4;;;;;;;18.59;52.97461;932.2814;;;;
2020/04/25 09:29:37;;;;;;;6.9;5;;;;;;;19.38;49.06348;932.2353;;;;
2020/04/25 09:32:02;;;;;;;5.6;4.7;;;;;;;20.07;48.45117;932.2074;;;;
2020/04/25 09:34:27;;;;;;;8.8;5;;;;;;;20.49;49.6416;932.1547;;;;
2020/04/25 09:36:53;;;;;;;9.3;4.7;;;;;;;20.21;45.55957;932.1794;;;;
2020/04/25 09:39:21;;;;;;;7;4.9;;;;;;;20.12;47.88379;932.1362;;;;
2020/04/25 09:41:47;;;;;;;6.4;4.8;;;;;;;20.4;46.94531;932.1259;;;;
2020/04/25 09:44:12;;;;;;;6.1;4.5;;;;;;;21.2;44.83105;932.0714;;;;
2020/04/25 09:46:39;;;;;;;5.1;4.2;;;;;;;21.93;41.88184;932.0633;;;;
2020/04/25 09:49:04;;;;;;;6.7;4.4;;;;;;;21.31;41.57715;932.0309;;;;
2020/04/25 09:51:29;;;;;;;6;4.6;;;;;;;20.67;44.67188;932.0446;;;;
2020/04/25 09:53:55;;;;;;;5.1;4;;;;;;;20.46;45.83008;932.0103;;;;
2020/04/25 09:56:20;;;;;;;5.2;4.3;;;;;;;20.48;44.60547;931.9666;;;;
2020/04/25 09:58:46;;;;;;;5.5;4.2;;;;;;;21.4;43.68164;931.9547;;;;
2020/04/25 10:01:11;;;;;;;8.8;4.6;;;;;;;21.6;43.10254;931.8067;;;;
2020/04/25 10:03:36;;;;;;;7.2;5.2;;;;;;;21.75;44.38281;931.8309;;;;
2020/04/25 10:06:03;;;;;;;7.9;4.8;;;;;;;22.41;42.77051;931.8569;;;;
2020/04/25 10:08:28;;;;;;;7.5;4.8;;;;;;;22.29;44.00293;931.7659;;;;
2020/04/25 10:10:54;;;;;;;6.6;4.1;;;;;;;22.68;42.55176;931.8014;;;;
2020/04/25 10:13:19;;;;;;;5.9;4.2;;;;;;;22.9;40.95215;931.7355;;;;
2020/04/25 10:15:44;;;;;;;5.5;4;;;;;;;22.36;42.32031;931.7003;;;;
2020/04/25 10:18:10;;;;;;;6;4.1;;;;;;;22.48;41.25293;931.7355;;;;
2020/04/25 10:20:35;;;;;;;5.7;4;;;;;;;22.76;41.24414;931.629;;;;
2020/04/25 10:23:05;;;;;;;7;4;;;;;;;22.9;41.57324;931.5499;;;;
2020/04/25 10:25:30;;;;;;;5.3;4.3;;;;;;;23.12;41.35938;931.5179;;;;
2020/04/25 10:27:55;;;;;;;5.6;3.8;;;;;;;24.1;39.2959;931.4805;;;;
2020/04/25 10:30:20;;;;;;;7.2;4;;;;;;;24.07;38.5166;931.4713;;;;
2020/04/25 10:32:45;;;;;;;7.4;4.2;;;;;;;23.32;39.13281;931.5129;;;;
2020/04/25 10:35:10;;;;;;;7.3;4.5;;;;;;;22.71;39.34863;931.4999;;;;
2020/04/25 10:37:35;;;;;;;7.6;3.8;;;;;;;22.23;41.2998;931.5075;;;;
2020/04/25 10:40:05;;;;;;;8.2;4.5;;;;;;;21.6;42.6123;931.4523;;;;
2020/04/25 10:42:30;;;;;;;6.4;4.2;;;;;;;21.18;43.47168;931.3828;;;;
2020/04/25 10:44:56;;;;;;;6.5;4.1;;;;;;;21.03;44.00684;931.3643;;;;
2020/04/25 10:47:22;;;;;;;6.2;4;;;;;;;21.03;44.67285;931.3506;;;;
2020/04/25 10:49:47;;;;;;;6.9;4.2;;;;;;;20.96;45.16895;931.2391;;;;
2020/04/25 10:52:13;;;;;;;6.5;4.3;;;;;;;20.9;44.80078;931.2171;;;;
2020/04/25 10:54:38;;;;;;;8.6;4.5;;;;;;;20.72;44.58398;931.2139;;;;
2020/04/25 10:57:04;;;;;;;9.6;5.5;;;;;;;20.49;45.28516;931.2056;;;;
2020/04/25 10:59:29;;;;;;;13.2;7;;;;;;;20.38;46.24316;931.1933;;;;
2020/04/25 11:01:55;;;;;;;9.2;5.3;;;;;;;20.25;46.48535;931.1728;;;;
2020/04/25 11:04:20;;;;;;;8.9;5;;;;;;;20.56;45.87598;931.1019;;;;
2020/04/25 11:06:45;;;;;;;8.5;4.5;;;;;;;20.69;45.10645;931.0939;;;;
2020/04/25 11:09:10;;;;;;;6.3;4.5;;;;;;;20.75;45.42773;931.1479;;;;
2020/04/25 11:11:36;;;;;;;6.6;5.1;;;;;;;20.69;45.71387;931.068;;;;
2020/04/25 11:14:01;;;;;;;7.3;5.1;;;;;;;20.47;46.03027;931.0698;;;;
2020/04/25 11:16:27;;;;;;;7.7;4.8;;;;;;;20.44;45.88672;931.1041;;;;
2020/04/25 11:18:52;;;;;;;9.1;5.2;;;;;;;20.39;46.11621;931.0928;;;;
2020/04/25 11:21:17;;;;;;;5.9;4.7;;;;;;;20.34;47.3125;931.0711;;;;
2020/04/25 11:23:42;;;;;;;9.1;4.7;;;;;;;20.39;46.97949;931.0485;;;;
2020/04/25 11:26:07;;;;;;;8.3;4.4;;;;;;;20.85;45.78906;930.9838;;;;
2020/04/25 11:28:32;;;;;;;7.2;4.4;;;;;;;21.31;44.66602;930.9967;;;;
2020/04/25 11:30:57;;;;;;;7;4.4;;;;;;;21.23;44.96289;930.9421;;;;
2020/04/25 11:33:22;;;;;;;7.4;4.6;;;;;;;21.25;43.8418;930.9522;;;;
2020/04/25 11:35:47;;;;;;;6.9;4.6;;;;;;;21.05;43.19043;930.9716;;;;
2020/04/25 11:38:12;;;;;;;7.7;4.5;;;;;;;20.76;43.79297;930.9378;;;;
2020/04/25 11:40:37;;;;;;;8;4.8;;;;;;;20.4;44.12012;930.899;;;;
2020/04/25 11:43:03;;;;;;;5.5;4.3;;;;;;;20.08;45.05566;930.8906;;;;
2020/04/25 11:45:28;;;;;;;8.2;4.4;;;;;;;19.93;46.02148;930.9316;;;;
2020/04/25 11:47:53;;;;;;;8.9;5;;;;;;;19.79;46.23926;930.9203;;;;
2020/04/25 11:50:19;;;;;;;8.1;4.5;;;;;;;19.71;47.08105;930.9211;;;;
2020/04/25 11:52:45;;;;;;;6.9;4.2;;;;;;;19.67;46.76367;930.9426;;;;
2020/04/25 11:55:10;;;;;;;7.1;4.3;;;;;;;19.6;47.60645;930.9609;;;;
2020/04/25 11:57:35;;;;;;;6.3;4.4;;;;;;;19.48;48.09473;930.9975;;;;
2020/04/25 12:00:00;;;;;;;7.2;4.6;;;;;;;19.41;48.19238;930.9803;;;;
2020/04/25 12:02:26;;;;;;;6.3;4.3;;;;;;;19.37;48.05957;930.9431;;;;
2020/04/25 12:04:51;;;;;;;8.6;4.7;;;;;;;19.41;47.93652;930.8494;;;;
2020/04/25 12:07:17;;;;;;;6.4;4.6;;;;;;;19.55;47.16992;930.9;;;;
2020/04/25 12:09:42;;;;;;;8.3;5.4;;;;;;;19.69;47.15039;930.8602;;;;
2020/04/25 12:12:09;;;;;;;6.9;5;;;;;;;20.28;46.80469;930.7833;;;;
2020/04/25 12:14:34;;;;;;;5.9;4;;;;;;;21.67;44.41016;930.7015;;;;
2020/04/25 12:16:59;;;;;;;5.5;3.9;;;;;;;22.37;40.98438;930.6878;;;;
2020/04/25 12:19:24;;;;;;;6.9;4.5;;;;;;;22.45;42.12988;930.6107;;;;
2020/04/25 12:21:49;;;;;;;5.8;3.8;;;;;;;22.24;41.11328;930.6934;;;;
2020/04/25 12:24:14;;;;;;;6;4;;;;;;;21.9;41.93652;930.6227;;;;
2020/04/25 12:26:40;;;;;;;8;3.8;;;;;;;21.62;41.67676;930.6128;;;;
2020/04/25 12:29:05;;;;;;;7.7;4;;;;;;;21.49;42.94141;930.5813;;;;
2020/04/25 12:31:30;;;;;;;5.1;4;;;;;;;21.32;43.18164;930.5392;;;;
2020/04/25 12:33:56;;;;;;;8;4;;;;;;;21.14;44.56836;930.4875;;;;
2020/04/25 12:36:22;;;;;;;6.4;3.8;;;;;;;20.98;44.63379;930.567;;;;
2020/04/25 12:38:48;;;;;;;7.5;3.9;;;;;;;20.8;45.08301;930.61;;;;
2020/04/25 12:41:13;;;;;;;7.6;3.7;;;;;;;20.65;45.0791;930.5524;;;;
2020/04/25 12:43:38;;;;;;;5.6;3.5;;;;;;;20.61;45.66992;930.6267;;;;
2020/04/25 12:46:05;;;;;;;7.7;4.1;;;;;;;20.61;46.53613;930.6436;;;;
2020/04/25 12:48:30;;;;;;;4.7;3.9;;;;;;;20.62;46.05762;930.6083;;;;
2020/04/25 12:50:55;;;;;;;7.2;4.3;;;;;;;20.74;47.58984;930.4863;;;;
2020/04/25 12:53:20;;;;;;;5.3;3.8;;;;;;;21;47.29004;930.5341;;;;
2020/04/25 12:55:45;;;;;;;7.4;3.8;;;;;;;21.52;46.4209;930.4147;;;;
2020/04/25 12:58:12;;;;;;;6.6;3.6;;;;;;;22.23;43.09375;930.4214;;;;
2020/04/25 13:00:37;;;;;;;5;3.5;;;;;;;22.51;41.12598;930.3635;;;;
2020/04/25 13:03:02;;;;;;;6.4;3.7;;;;;;;22.08;39.28223;930.3624;;;;
2020/04/25 13:05:28;;;;;;;8.9;3.6;;;;;;;21.92;40.16992;930.3095;;;;
2020/04/25 13:07:53;;;;;;;5.6;3.8;;;;;;;21.36;40.35352;930.3488;;;;
2020/04/25 13:10:19;;;;;;;7.5;4;;;;;;;20.72;43.88281;930.3101;;;;
2020/04/25 13:12:46;;;;;;;9.6;4.4;;;;;;;20.18;45.43945;930.3337;;;;
2020/04/25 13:15:12;;;;;;;7.1;4;;;;;;;19.91;45.1084;930.3342;;;;
2020/04/25 13:17:37;;;;;;;7.7;3.7;;;;;;;19.78;45.81836;930.3206;;;;
2020/04/25 13:20:02;;;;;;;5.8;4.2;;;;;;;19.84;45.91797;930.2603;;;;
2020/04/25 13:22:28;;;;;;;6.3;4.1;;;;;;;20.04;46.50977;930.2034;;;;
2020/04/25 13:24:54;;;;;;;4.3;3.5;;;;;;;20.45;44.88281;930.1731;;;;
2020/04/25 13:27:20;;;;;;;6.4;3.6;;;;;;;20.51;43.29004;930.1674;;;;
2020/04/25 13:29:45;;;;;;;7.5;3.6;;;;;;;20.94;43.63574;930.1552;;;;
2020/04/25 13:32:10;;;;;;;6.8;3.7;;;;;;;21.36;43.66504;930.191;;;;
2020/04/25 13:34:36;;;;;;;7.1;3.3;;;;;;;21.47;43.44141;930.1694;;;;
2020/04/25 13:37:01;;;;;;;5.6;3.4;;;;;;;21.12;42.74023;930.1072;;;;
2020/04/25 13:39:26;;;;;;;5.4;3.5;;;;;;;21.13;42.57813;930.072;;;;
2020/04/25 13:41:51;;;;;;;6.3;3.5;;;;;;;21.1;43.47656;930.0447;;;;
2020/04/25 13:44:16;;;;;;;4.8;3.1;;;;;;;21.05;41.20117;930.0756;;;;
2020/04/25 13:46:42;;;;;;;5.6;3.1;;;;;;;20.91;41.55078;930.0773;;;;
2020/04/25 13:49:20;;;;;;;6.2;3.2;;;;;;;21.26;39.80566;930.0036;;;;
2020/04/25 13:51:32;;;;;;;4.8;3.1;;;;;;;21.73;39.56641;929.9673;;;;
2020/04/25 13:53:58;;;;;;;5.8;3.2;;;;;;;22.01;40.06055;929.9227;;;;
2020/04/25 13:56:23;;;;;;;4.9;3.3;;;;;;;22.49;38.39063;929.9506;;;;
2020/04/25 13:58:48;;;;;;;6.8;2.8;;;;;;;22.9;39.3418;929.8984;;;;
2020/04/25 14:01:14;;;;;;;4.6;3;;;;;;;23.14;37.02539;929.9172;;;;
2020/04/25 14:03:39;;;;;;;7.8;3.1;;;;;;;23.15;36.93164;929.8873;;;;
2020/04/25 14:06:04;;;;;;;5.8;2.9;;;;;;;23.11;36.24707;929.8505;;;;
2020/04/25 14:08:30;;;;;;;4.3;3;;;;;;;23.02;38.88281;929.8862;;;;
2020/04/25 14:10:56;;;;;;;5.2;2.9;;;;;;;22.94;37.25488;929.8337;;;;
2020/04/25 14:13:21;;;;;;;5.6;3.3;;;;;;;22.82;37.10449;929.8345;;;;
2020/04/25 14:15:46;;;;;;;6.6;3.2;;;;;;;22.63;37.42871;929.7891;;;;
2020/04/25 14:18:11;;;;;;;6.9;3.3;;;;;;;22.41;38.18457;929.8706;;;;
2020/04/25 14:20:36;;;;;;;5.6;3.9;;;;;;;22.23;38.24023;929.8469;;;;
2020/04/25 14:23:02;;;;;;;7;3.7;;;;;;;22.1;38.63867;929.8456;;;;
2020/04/25 14:25:28;;;;;;;8.4;4.7;;;;;;;22.11;38.83789;929.8967;;;;